sensor_id;sensor_type;location;lat;lon;timestamp;P1;durP1;ratioP1;P2;durP2;ratioP2
10403;SDS011;5248;47.374;8.486;2022-09-03T00:01:47;5.38;;;4.97;;
10403;SDS011;5248;47.374;8.486;2022-09-03T00:04:18;5.85;;;5.00;;
10403;SDS011;5248;47.374;8.486;2022-09-03T00:06:50;5.80;;;5.25;;
10403;SDS011;5248;47.374;8.486;2022-09-03T00:09:24;6.15;;;5.53;;
10403;SDS011;5248;47.374;8.486;2022-09-03T00:11:57;5.80;;;5.40;;
10403;SDS011;5248;47.374;8.486;2022-09-03T00:14:31;5.00;;;4.65;;
10403;SDS011;5248;47.374;8.486;2022-09-03T00:17:02;5.10;;;4.80;;
10403;SDS011;5248;47.374;8.486;2022-09-03T00:19:31;5.90;;;5.15;;
10403;SDS011;5248;47.374;8.486;2022-09-03T00:22:01;5.35;;;4.95;;
10403;SDS011;5248;47.374;8.486;2022-09-03T00:24:34;6.38;;;5.85;;
10403;SDS011;5248;47.374;8.486;2022-09-03T00:27:04;5.70;;;5.30;;
10403;SDS011;5248;47.374;8.486;2022-09-03T00:29:36;6.30;;;5.90;;
10403;SDS011;5248;47.374;8.486;2022-09-03T00:32:09;7.18;;;6.57;;
10403;SDS011;5248;47.374;8.486;2022-09-03T00:34:39;6.40;;;5.90;;
10403;SDS011;5248;47.374;8.486;2022-09-03T00:37:08;7.30;;;6.60;;
10403;SDS011;5248;47.374;8.486;2022-09-03T00:39:35;7.30;;;6.65;;
10403;SDS011;5248;47.374;8.486;2022-09-03T00:42:08;7.93;;;6.63;;
10403;SDS011;5248;47.374;8.486;2022-09-03T00:44:49;7.35;;;6.72;;
10403;SDS011;5248;47.374;8.486;2022-09-03T00:47:26;7.07;;;6.55;;
10403;SDS011;5248;47.374;8.486;2022-09-03T00:50:02;7.20;;;6.60;;
10403;SDS011;5248;47.374;8.486;2022-09-03T00:52:37;6.05;;;5.63;;
10403;SDS011;5248;47.374;8.486;2022-09-03T00:55:12;6.05;;;5.65;;
10403;SDS011;5248;47.374;8.486;2022-09-03T00:57:48;6.13;;;5.50;;
10403;SDS011;5248;47.374;8.486;2022-09-03T01:00:23;5.78;;;5.35;;
10403;SDS011;5248;47.374;8.486;2022-09-03T01:02:54;5.93;;;5.45;;
10403;SDS011;5248;47.374;8.486;2022-09-03T01:05:31;5.97;;;5.57;;
10403;SDS011;5248;47.374;8.486;2022-09-03T01:08:07;5.80;;;5.30;;
10403;SDS011;5248;47.374;8.486;2022-09-03T01:10:41;6.00;;;5.50;;
10403;SDS011;5248;47.374;8.486;2022-09-03T01:13:16;6.05;;;5.50;;
10403;SDS011;5248;47.374;8.486;2022-09-03T01:15:49;5.63;;;5.13;;
10403;SDS011;5248;47.374;8.486;2022-09-03T01:18:23;5.32;;;4.93;;
10403;SDS011;5248;47.374;8.486;2022-09-03T01:20:55;6.15;;;5.70;;
10403;SDS011;5248;47.374;8.486;2022-09-03T01:23:35;6.00;;;5.40;;
10403;SDS011;5248;47.374;8.486;2022-09-03T01:26:26;6.10;;;5.60;;
10403;SDS011;5248;47.374;8.486;2022-09-03T01:29:00;6.60;;;6.03;;
10403;SDS011;5248;47.374;8.486;2022-09-03T01:31:31;6.60;;;6.07;;
10403;SDS011;5248;47.374;8.486;2022-09-03T01:34:05;6.22;;;5.60;;
10403;SDS011;5248;47.374;8.486;2022-09-03T01:36:38;5.95;;;5.47;;
10403;SDS011;5248;47.374;8.486;2022-09-03T01:39:10;5.57;;;5.18;;
10403;SDS011;5248;47.374;8.486;2022-09-03T01:41:41;5.72;;;5.32;;
10403;SDS011;5248;47.374;8.486;2022-09-03T01:44:34;6.10;;;5.45;;
10403;SDS011;5248;47.374;8.486;2022-09-03T01:47:21;6.35;;;5.80;;
10403;SDS011;5248;47.374;8.486;2022-09-03T01:49:59;6.53;;;5.28;;
10403;SDS011;5248;47.374;8.486;2022-09-03T01:52:32;4.38;;;4.13;;
10403;SDS011;5248;47.374;8.486;2022-09-03T01:55:08;4.00;;;3.70;;
10403;SDS011;5248;47.374;8.486;2022-09-03T01:57:45;3.90;;;3.60;;
10403;SDS011;5248;47.374;8.486;2022-09-03T02:00:15;4.28;;;3.70;;
10403;SDS011;5248;47.374;8.486;2022-09-03T02:02:45;3.85;;;3.65;;
10403;SDS011;5248;47.374;8.486;2022-09-03T02:05:13;4.45;;;4.05;;
10403;SDS011;5248;47.374;8.486;2022-09-03T02:07:42;3.55;;;3.35;;
10403;SDS011;5248;47.374;8.486;2022-09-03T02:10:11;4.10;;;3.10;;
10403;SDS011;5248;47.374;8.486;2022-09-03T02:12:39;2.90;;;2.70;;
10403;SDS011;5248;47.374;8.486;2022-09-03T02:15:09;2.78;;;2.58;;
10403;SDS011;5248;47.374;8.486;2022-09-03T02:17:39;2.58;;;2.45;;
10403;SDS011;5248;47.374;8.486;2022-09-03T02:20:07;2.95;;;2.75;;
10403;SDS011;5248;47.374;8.486;2022-09-03T02:22:36;2.75;;;2.55;;
10403;SDS011;5248;47.374;8.486;2022-09-03T02:25:03;3.33;;;2.50;;
10403;SDS011;5248;47.374;8.486;2022-09-03T02:27:30;2.90;;;2.70;;
10403;SDS011;5248;47.374;8.486;2022-09-03T02:29:57;3.10;;;2.90;;
10403;SDS011;5248;47.374;8.486;2022-09-03T02:32:24;2.92;;;2.67;;
10403;SDS011;5248;47.374;8.486;2022-09-03T02:34:53;3.03;;;2.75;;
10403;SDS011;5248;47.374;8.486;2022-09-03T02:37:19;3.17;;;2.97;;
10403;SDS011;5248;47.374;8.486;2022-09-03T02:39:47;2.70;;;2.50;;
10403;SDS011;5248;47.374;8.486;2022-09-03T02:42:16;2.30;;;2.20;;
10403;SDS011;5248;47.374;8.486;2022-09-03T02:44:45;2.15;;;2.05;;
10403;SDS011;5248;47.374;8.486;2022-09-03T02:47:14;2.60;;;2.40;;
10403;SDS011;5248;47.374;8.486;2022-09-03T02:49:40;2.40;;;2.30;;
10403;SDS011;5248;47.374;8.486;2022-09-03T02:52:08;3.00;;;2.28;;
10403;SDS011;5248;47.374;8.486;2022-09-03T02:54:36;2.80;;;2.50;;
10403;SDS011;5248;47.374;8.486;2022-09-03T02:57:05;2.40;;;2.30;;
10403;SDS011;5248;47.374;8.486;2022-09-03T02:59:32;3.20;;;2.30;;
10403;SDS011;5248;47.374;8.486;2022-09-03T03:01:59;2.50;;;2.30;;
10403;SDS011;5248;47.374;8.486;2022-09-03T03:04:26;3.22;;;2.33;;
10403;SDS011;5248;47.374;8.486;2022-09-03T03:06:53;2.53;;;2.33;;
10403;SDS011;5248;47.374;8.486;2022-09-03T03:09:21;2.60;;;2.40;;
10403;SDS011;5248;47.374;8.486;2022-09-03T03:11:49;2.38;;;2.28;;
10403;SDS011;5248;47.374;8.486;2022-09-03T03:14:19;2.30;;;2.20;;
10403;SDS011;5248;47.374;8.486;2022-09-03T03:16:46;2.13;;;2.03;;
10403;SDS011;5248;47.374;8.486;2022-09-03T03:19:13;2.10;;;2.00;;
10403;SDS011;5248;47.374;8.486;2022-09-03T03:21:39;2.50;;;2.40;;
10403;SDS011;5248;47.374;8.486;2022-09-03T03:24:06;2.70;;;2.50;;
10403;SDS011;5248;47.374;8.486;2022-09-03T03:26:35;2.85;;;2.65;;
10403;SDS011;5248;47.374;8.486;2022-09-03T03:29:02;2.72;;;2.22;;
10403;SDS011;5248;47.374;8.486;2022-09-03T03:31:30;2.17;;;2.08;;
10403;SDS011;5248;47.374;8.486;2022-09-03T03:33:57;2.45;;;2.35;;
10403;SDS011;5248;47.374;8.486;2022-09-03T03:36:27;2.20;;;2.10;;
10403;SDS011;5248;47.374;8.486;2022-09-03T03:38:56;2.60;;;2.40;;
10403;SDS011;5248;47.374;8.486;2022-09-03T03:41:24;2.20;;;2.10;;
10403;SDS011;5248;47.374;8.486;2022-09-03T03:43:57;2.53;;;2.42;;
10403;SDS011;5248;47.374;8.486;2022-09-03T03:46:27;2.42;;;2.22;;
10403;SDS011;5248;47.374;8.486;2022-09-03T03:48:54;2.78;;;2.58;;
10403;SDS011;5248;47.374;8.486;2022-09-03T03:51:21;2.40;;;2.30;;
10403;SDS011;5248;47.374;8.486;2022-09-03T03:53:47;2.42;;;2.33;;
10403;SDS011;5248;47.374;8.486;2022-09-03T03:56:14;2.47;;;2.38;;
10403;SDS011;5248;47.374;8.486;2022-09-03T03:58:42;2.58;;;2.38;;
10403;SDS011;5248;47.374;8.486;2022-09-03T04:01:11;2.70;;;2.50;;
10403;SDS011;5248;47.374;8.486;2022-09-03T04:03:40;2.60;;;2.40;;
10403;SDS011;5248;47.374;8.486;2022-09-03T04:06:10;3.17;;;2.97;;
10403;SDS011;5248;47.374;8.486;2022-09-03T04:08:38;2.58;;;2.45;;
10403;SDS011;5248;47.374;8.486;2022-09-03T04:11:06;3.00;;;2.70;;
10403;SDS011;5248;47.374;8.486;2022-09-03T04:13:34;2.88;;;2.60;;
10403;SDS011;5248;47.374;8.486;2022-09-03T04:16:02;2.72;;;2.53;;
10403;SDS011;5248;47.374;8.486;2022-09-03T04:18:31;2.95;;;2.80;;
10403;SDS011;5248;47.374;8.486;2022-09-03T04:20:59;3.10;;;2.90;;
10403;SDS011;5248;47.374;8.486;2022-09-03T04:23:28;3.20;;;2.92;;
10403;SDS011;5248;47.374;8.486;2022-09-03T04:25:55;3.00;;;2.80;;
10403;SDS011;5248;47.374;8.486;2022-09-03T04:28:21;2.90;;;2.80;;
10403;SDS011;5248;47.374;8.486;2022-09-03T04:30:48;3.13;;;2.83;;
10403;SDS011;5248;47.374;8.486;2022-09-03T04:33:15;2.95;;;2.78;;
10403;SDS011;5248;47.374;8.486;2022-09-03T04:35:43;2.97;;;2.80;;
10403;SDS011;5248;47.374;8.486;2022-09-03T04:38:09;3.25;;;3.05;;
10403;SDS011;5248;47.374;8.486;2022-09-03T04:40:39;3.75;;;2.60;;
10403;SDS011;5248;47.374;8.486;2022-09-03T04:43:06;2.55;;;2.35;;
10403;SDS011;5248;47.374;8.486;2022-09-03T04:45:33;3.00;;;2.80;;
10403;SDS011;5248;47.374;8.486;2022-09-03T04:48:00;2.83;;;2.70;;
10403;SDS011;5248;47.374;8.486;2022-09-03T04:50:27;3.10;;;2.90;;
10403;SDS011;5248;47.374;8.486;2022-09-03T04:52:57;3.08;;;2.65;;
10403;SDS011;5248;47.374;8.486;2022-09-03T04:55:25;2.95;;;2.75;;
10403;SDS011;5248;47.374;8.486;2022-09-03T04:57:52;2.65;;;2.55;;
10403;SDS011;5248;47.374;8.486;2022-09-03T05:00:18;2.35;;;2.20;;
10403;SDS011;5248;47.374;8.486;2022-09-03T05:02:45;2.65;;;2.45;;
10403;SDS011;5248;47.374;8.486;2022-09-03T05:05:13;2.67;;;2.47;;
10403;SDS011;5248;47.374;8.486;2022-09-03T05:07:40;2.33;;;2.22;;
10403;SDS011;5248;47.374;8.486;2022-09-03T05:10:11;2.38;;;2.17;;
10403;SDS011;5248;47.374;8.486;2022-09-03T05:12:40;2.40;;;2.30;;
10403;SDS011;5248;47.374;8.486;2022-09-03T05:15:07;2.13;;;2.03;;
10403;SDS011;5248;47.374;8.486;2022-09-03T05:17:35;2.45;;;2.30;;
10403;SDS011;5248;47.374;8.486;2022-09-03T05:20:03;2.63;;;2.42;;
10403;SDS011;5248;47.374;8.486;2022-09-03T05:22:31;2.45;;;2.35;;
10403;SDS011;5248;47.374;8.486;2022-09-03T05:24:59;2.05;;;1.95;;
10403;SDS011;5248;47.374;8.486;2022-09-03T05:27:27;2.17;;;2.08;;
10403;SDS011;5248;47.374;8.486;2022-09-03T05:29:54;2.47;;;2.23;;
10403;SDS011;5248;47.374;8.486;2022-09-03T05:32:20;2.20;;;2.10;;
10403;SDS011;5248;47.374;8.486;2022-09-03T05:34:49;2.30;;;2.20;;
10403;SDS011;5248;47.374;8.486;2022-09-03T05:37:16;2.38;;;2.28;;
10403;SDS011;5248;47.374;8.486;2022-09-03T05:39:42;2.60;;;2.50;;
10403;SDS011;5248;47.374;8.486;2022-09-03T05:42:09;2.70;;;2.60;;
10403;SDS011;5248;47.374;8.486;2022-09-03T05:44:39;3.20;;;2.88;;
10403;SDS011;5248;47.374;8.486;2022-09-03T05:47:05;2.92;;;2.72;;
10403;SDS011;5248;47.374;8.486;2022-09-03T05:49:32;3.73;;;2.30;;
10403;SDS011;5248;47.374;8.486;2022-09-03T05:51:59;2.53;;;2.40;;
10403;SDS011;5248;47.374;8.486;2022-09-03T05:54:26;8.50;;;2.42;;
10403;SDS011;5248;47.374;8.486;2022-09-03T05:56:52;2.38;;;2.20;;
10403;SDS011;5248;47.374;8.486;2022-09-03T05:59:19;2.70;;;2.50;;
10403;SDS011;5248;47.374;8.486;2022-09-03T06:01:47;3.85;;;2.78;;
10403;SDS011;5248;47.374;8.486;2022-09-03T06:04:14;2.63;;;2.45;;
10403;SDS011;5248;47.374;8.486;2022-09-03T06:06:42;2.42;;;2.30;;
10403;SDS011;5248;47.374;8.486;2022-09-03T06:09:10;3.78;;;2.50;;
10403;SDS011;5248;47.374;8.486;2022-09-03T06:11:39;2.90;;;2.80;;
10403;SDS011;5248;47.374;8.486;2022-09-03T06:14:07;2.50;;;2.40;;
10403;SDS011;5248;47.374;8.486;2022-09-03T06:16:36;2.40;;;2.30;;
10403;SDS011;5248;47.374;8.486;2022-09-03T06:19:05;2.90;;;2.70;;
10403;SDS011;5248;47.374;8.486;2022-09-03T06:21:35;2.70;;;2.50;;
10403;SDS011;5248;47.374;8.486;2022-09-03T06:24:07;2.58;;;2.38;;
10403;SDS011;5248;47.374;8.486;2022-09-03T06:26:34;2.60;;;2.50;;
10403;SDS011;5248;47.374;8.486;2022-09-03T06:29:01;2.40;;;2.30;;
10403;SDS011;5248;47.374;8.486;2022-09-03T06:31:27;2.85;;;2.65;;
10403;SDS011;5248;47.374;8.486;2022-09-03T06:33:55;2.63;;;2.53;;
10403;SDS011;5248;47.374;8.486;2022-09-03T06:36:26;2.30;;;2.20;;
10403;SDS011;5248;47.374;8.486;2022-09-03T06:38:53;4.07;;;2.83;;
10403;SDS011;5248;47.374;8.486;2022-09-03T06:41:22;2.80;;;2.53;;
10403;SDS011;5248;47.374;8.486;2022-09-03T06:43:50;2.90;;;2.70;;
10403;SDS011;5248;47.374;8.486;2022-09-03T06:46:18;2.63;;;2.47;;
10403;SDS011;5248;47.374;8.486;2022-09-03T06:48:46;3.60;;;2.47;;
10403;SDS011;5248;47.374;8.486;2022-09-03T06:51:15;2.50;;;2.40;;
10403;SDS011;5248;47.374;8.486;2022-09-03T06:53:45;2.22;;;2.10;;
10403;SDS011;5248;47.374;8.486;2022-09-03T06:56:13;2.47;;;2.35;;
10403;SDS011;5248;47.374;8.486;2022-09-03T06:58:41;4.03;;;2.20;;
10403;SDS011;5248;47.374;8.486;2022-09-03T07:01:10;3.08;;;2.80;;
10403;SDS011;5248;47.374;8.486;2022-09-03T07:03:38;2.70;;;2.60;;
10403;SDS011;5248;47.374;8.486;2022-09-03T07:06:07;2.58;;;2.47;;
10403;SDS011;5248;47.374;8.486;2022-09-03T07:08:34;2.50;;;2.40;;
10403;SDS011;5248;47.374;8.486;2022-09-03T07:11:03;2.85;;;2.70;;
10403;SDS011;5248;47.374;8.486;2022-09-03T07:13:33;3.13;;;2.55;;
10403;SDS011;5248;47.374;8.486;2022-09-03T07:16:00;3.00;;;2.80;;
10403;SDS011;5248;47.374;8.486;2022-09-03T07:18:28;2.88;;;2.75;;
10403;SDS011;5248;47.374;8.486;2022-09-03T07:20:59;2.85;;;2.65;;
10403;SDS011;5248;47.374;8.486;2022-09-03T07:23:26;2.78;;;2.58;;
10403;SDS011;5248;47.374;8.486;2022-09-03T07:25:54;2.50;;;2.30;;
10403;SDS011;5248;47.374;8.486;2022-09-03T07:28:22;2.45;;;2.35;;
10403;SDS011;5248;47.374;8.486;2022-09-03T07:30:49;2.33;;;2.15;;
10403;SDS011;5248;47.374;8.486;2022-09-03T07:33:16;2.67;;;2.55;;
10403;SDS011;5248;47.374;8.486;2022-09-03T07:35:43;2.55;;;2.45;;
10403;SDS011;5248;47.374;8.486;2022-09-03T07:38:09;2.15;;;2.05;;
10403;SDS011;5248;47.374;8.486;2022-09-03T07:40:37;2.53;;;2.40;;
10403;SDS011;5248;47.374;8.486;2022-09-03T07:43:04;2.47;;;2.33;;
10403;SDS011;5248;47.374;8.486;2022-09-03T07:45:32;2.20;;;2.10;;
10403;SDS011;5248;47.374;8.486;2022-09-03T07:47:59;2.50;;;2.30;;
10403;SDS011;5248;47.374;8.486;2022-09-03T07:50:26;2.78;;;2.40;;
10403;SDS011;5248;47.374;8.486;2022-09-03T07:52:55;2.33;;;2.22;;
10403;SDS011;5248;47.374;8.486;2022-09-03T07:55:22;3.45;;;2.92;;
10403;SDS011;5248;47.374;8.486;2022-09-03T07:57:49;2.15;;;1.98;;
10403;SDS011;5248;47.374;8.486;2022-09-03T08:00:22;2.22;;;2.13;;
10403;SDS011;5248;47.374;8.486;2022-09-03T08:02:51;2.00;;;1.90;;
10403;SDS011;5248;47.374;8.486;2022-09-03T08:05:18;2.13;;;2.03;;
10403;SDS011;5248;47.374;8.486;2022-09-03T08:07:46;1.92;;;1.80;;
10403;SDS011;5248;47.374;8.486;2022-09-03T08:10:13;1.85;;;1.75;;
10403;SDS011;5248;47.374;8.486;2022-09-03T08:12:41;2.70;;;2.25;;
10403;SDS011;5248;47.374;8.486;2022-09-03T08:15:08;2.53;;;2.30;;
10403;SDS011;5248;47.374;8.486;2022-09-03T08:17:35;3.00;;;2.10;;
10403;SDS011;5248;47.374;8.486;2022-09-03T08:20:04;2.47;;;2.05;;
10403;SDS011;5248;47.374;8.486;2022-09-03T08:22:32;2.47;;;2.38;;
10403;SDS011;5248;47.374;8.486;2022-09-03T08:24:58;2.30;;;2.20;;
10403;SDS011;5248;47.374;8.486;2022-09-03T08:27:25;2.22;;;2.13;;
10403;SDS011;5248;47.374;8.486;2022-09-03T08:29:53;2.35;;;2.15;;
10403;SDS011;5248;47.374;8.486;2022-09-03T08:32:19;2.38;;;2.25;;
10403;SDS011;5248;47.374;8.486;2022-09-03T08:34:46;2.75;;;2.55;;
10403;SDS011;5248;47.374;8.486;2022-09-03T08:37:16;2.70;;;2.50;;
10403;SDS011;5248;47.374;8.486;2022-09-03T08:39:42;2.25;;;2.15;;
10403;SDS011;5248;47.374;8.486;2022-09-03T08:42:18;3.53;;;2.30;;
10403;SDS011;5248;47.374;8.486;2022-09-03T08:44:51;2.67;;;2.35;;
10403;SDS011;5248;47.374;8.486;2022-09-03T08:47:21;2.13;;;2.03;;
10403;SDS011;5248;47.374;8.486;2022-09-03T08:49:53;2.22;;;2.10;;
10403;SDS011;5248;47.374;8.486;2022-09-03T08:52:27;2.63;;;2.42;;
10403;SDS011;5248;47.374;8.486;2022-09-03T08:54:58;2.28;;;2.10;;
10403;SDS011;5248;47.374;8.486;2022-09-03T08:57:30;2.67;;;2.30;;
10403;SDS011;5248;47.374;8.486;2022-09-03T08:59:58;1.83;;;1.83;;
10403;SDS011;5248;47.374;8.486;2022-09-03T09:02:25;2.40;;;2.30;;
10403;SDS011;5248;47.374;8.486;2022-09-03T09:04:58;2.80;;;2.45;;
10403;SDS011;5248;47.374;8.486;2022-09-03T09:07:31;5.22;;;4.72;;
10403;SDS011;5248;47.374;8.486;2022-09-03T09:10:04;2.70;;;2.50;;
10403;SDS011;5248;47.374;8.486;2022-09-03T09:12:38;2.60;;;2.05;;
10403;SDS011;5248;47.374;8.486;2022-09-03T09:15:09;4.80;;;4.40;;
10403;SDS011;5248;47.374;8.486;2022-09-03T09:17:44;2.40;;;2.30;;
10403;SDS011;5248;47.374;8.486;2022-09-03T09:20:18;2.28;;;2.15;;
10403;SDS011;5248;47.374;8.486;2022-09-03T09:22:49;2.50;;;2.40;;
10403;SDS011;5248;47.374;8.486;2022-09-03T09:25:18;2.45;;;2.35;;
10403;SDS011;5248;47.374;8.486;2022-09-03T09:27:49;2.58;;;2.10;;
10403;SDS011;5248;47.374;8.486;2022-09-03T09:30:17;2.33;;;2.22;;
10403;SDS011;5248;47.374;8.486;2022-09-03T09:32:44;2.33;;;2.13;;
10403;SDS011;5248;47.374;8.486;2022-09-03T09:35:12;2.45;;;2.30;;
10403;SDS011;5248;47.374;8.486;2022-09-03T09:37:50;2.45;;;2.28;;
10403;SDS011;5248;47.374;8.486;2022-09-03T09:40:25;2.42;;;2.13;;
10403;SDS011;5248;47.374;8.486;2022-09-03T09:43:02;3.20;;;2.47;;
10403;SDS011;5248;47.374;8.486;2022-09-03T09:45:34;2.17;;;2.08;;
10403;SDS011;5248;47.374;8.486;2022-09-03T09:48:12;2.25;;;2.05;;
10403;SDS011;5248;47.374;8.486;2022-09-03T09:50:43;2.17;;;2.08;;
10403;SDS011;5248;47.374;8.486;2022-09-03T09:53:11;2.97;;;2.17;;
10403;SDS011;5248;47.374;8.486;2022-09-03T09:55:48;2.22;;;1.95;;
10403;SDS011;5248;47.374;8.486;2022-09-03T09:58:19;2.10;;;2.00;;
10403;SDS011;5248;47.374;8.486;2022-09-03T10:00:54;2.00;;;1.90;;
10403;SDS011;5248;47.374;8.486;2022-09-03T10:03:22;2.20;;;2.00;;
10403;SDS011;5248;47.374;8.486;2022-09-03T10:05:57;2.00;;;1.90;;
10403;SDS011;5248;47.374;8.486;2022-09-03T10:08:49;2.45;;;2.25;;
10403;SDS011;5248;47.374;8.486;2022-09-03T10:11:16;3.70;;;2.00;;
10403;SDS011;5248;47.374;8.486;2022-09-03T10:13:44;4.22;;;2.20;;
10403;SDS011;5248;47.374;8.486;2022-09-03T10:16:14;1.92;;;1.83;;
10403;SDS011;5248;47.374;8.486;2022-09-03T10:18:48;2.00;;;1.90;;
10403;SDS011;5248;47.374;8.486;2022-09-03T10:21:19;2.22;;;1.75;;
10403;SDS011;5248;47.374;8.486;2022-09-03T10:23:55;2.22;;;2.03;;
10403;SDS011;5248;47.374;8.486;2022-09-03T10:26:24;2.00;;;1.90;;
10403;SDS011;5248;47.374;8.486;2022-09-03T10:28:55;2.15;;;2.00;;
10403;SDS011;5248;47.374;8.486;2022-09-03T10:31:35;1.65;;;1.55;;
10403;SDS011;5248;47.374;8.486;2022-09-03T10:34:06;1.63;;;1.52;;
10403;SDS011;5248;47.374;8.486;2022-09-03T10:36:36;1.85;;;1.75;;
10403;SDS011;5248;47.374;8.486;2022-09-03T10:39:09;1.90;;;1.80;;
10403;SDS011;5248;47.374;8.486;2022-09-03T10:41:42;1.80;;;1.70;;
10403;SDS011;5248;47.374;8.486;2022-09-03T10:44:30;2.63;;;1.73;;
10403;SDS011;5248;47.374;8.486;2022-09-03T10:47:11;1.60;;;1.50;;
10403;SDS011;5248;47.374;8.486;2022-09-03T10:49:47;1.90;;;1.67;;
10403;SDS011;5248;47.374;8.486;2022-09-03T10:52:16;1.83;;;1.73;;
10403;SDS011;5248;47.374;8.486;2022-09-03T10:55:01;2.10;;;1.80;;
10403;SDS011;5248;47.374;8.486;2022-09-03T10:57:41;1.80;;;1.70;;
10403;SDS011;5248;47.374;8.486;2022-09-03T11:00:12;2.13;;;2.03;;
10403;SDS011;5248;47.374;8.486;2022-09-03T11:02:58;1.98;;;1.77;;
10403;SDS011;5248;47.374;8.486;2022-09-03T11:05:41;2.00;;;1.90;;
10403;SDS011;5248;47.374;8.486;2022-09-03T11:08:21;1.83;;;1.73;;
10403;SDS011;5248;47.374;8.486;2022-09-03T11:10:54;2.15;;;1.95;;
10403;SDS011;5248;47.374;8.486;2022-09-03T11:13:23;1.98;;;1.88;;
10403;SDS011;5248;47.374;8.486;2022-09-03T11:15:53;2.25;;;2.03;;
10403;SDS011;5248;47.374;8.486;2022-09-03T11:18:23;2.40;;;2.30;;
10403;SDS011;5248;47.374;8.486;2022-09-03T11:20:53;2.25;;;2.13;;
10403;SDS011;5248;47.374;8.486;2022-09-03T11:23:26;2.80;;;1.95;;
10403;SDS011;5248;47.374;8.486;2022-09-03T11:25:57;1.90;;;1.80;;
10403;SDS011;5248;47.374;8.486;2022-09-03T11:28:28;2.10;;;2.00;;
10403;SDS011;5248;47.374;8.486;2022-09-03T11:31:15;2.38;;;2.20;;
10403;SDS011;5248;47.374;8.486;2022-09-03T11:33:45;1.92;;;1.77;;
10403;SDS011;5248;47.374;8.486;2022-09-03T11:36:19;2.95;;;1.80;;
10403;SDS011;5248;47.374;8.486;2022-09-03T11:38:48;2.17;;;2.08;;
10403;SDS011;5248;47.374;8.486;2022-09-03T11:41:23;2.10;;;1.85;;
10403;SDS011;5248;47.374;8.486;2022-09-03T11:43:51;2.10;;;1.92;;
10403;SDS011;5248;47.374;8.486;2022-09-03T11:46:26;1.85;;;1.67;;
10403;SDS011;5248;47.374;8.486;2022-09-03T11:48:54;1.67;;;1.58;;
10403;SDS011;5248;47.374;8.486;2022-09-03T11:51:31;1.85;;;1.75;;
10403;SDS011;5248;47.374;8.486;2022-09-03T11:54:02;2.85;;;2.55;;
10403;SDS011;5248;47.374;8.486;2022-09-03T11:56:32;1.58;;;1.50;;
10403;SDS011;5248;47.374;8.486;2022-09-03T11:59:02;1.90;;;1.80;;
10403;SDS011;5248;47.374;8.486;2022-09-03T12:01:41;1.85;;;1.75;;
10403;SDS011;5248;47.374;8.486;2022-09-03T12:04:12;1.77;;;1.60;;
10403;SDS011;5248;47.374;8.486;2022-09-03T12:12:48;2.13;;;1.70;;
10403;SDS011;5248;47.374;8.486;2022-09-03T12:15:28;1.88;;;1.77;;
10403;SDS011;5248;47.374;8.486;2022-09-03T12:18:07;1.38;;;1.38;;
10403;SDS011;5248;47.374;8.486;2022-09-03T12:20:45;1.48;;;1.42;;
10403;SDS011;5248;47.374;8.486;2022-09-03T12:23:12;1.45;;;1.35;;
10403;SDS011;5248;47.374;8.486;2022-09-03T12:25:42;1.15;;;1.15;;
10403;SDS011;5248;47.374;8.486;2022-09-03T12:28:17;1.27;;;1.10;;
10403;SDS011;5248;47.374;8.486;2022-09-03T12:30:47;1.58;;;1.38;;
10403;SDS011;5248;47.374;8.486;2022-09-03T12:33:17;1.45;;;1.35;;
10403;SDS011;5248;47.374;8.486;2022-09-03T12:35:54;1.20;;;1.20;;
10403;SDS011;5248;47.374;8.486;2022-09-03T12:38:22;2.35;;;1.10;;
10403;SDS011;5248;47.374;8.486;2022-09-03T12:40:49;1.35;;;1.35;;
10403;SDS011;5248;47.374;8.486;2022-09-03T12:43:17;1.23;;;1.15;;
10403;SDS011;5248;47.374;8.486;2022-09-03T12:45:44;1.45;;;1.35;;
10403;SDS011;5248;47.374;8.486;2022-09-03T12:48:12;1.38;;;1.30;;
10403;SDS011;5248;47.374;8.486;2022-09-03T12:50:41;1.67;;;1.63;;
10403;SDS011;5248;47.374;8.486;2022-09-03T12:53:08;1.30;;;1.20;;
10403;SDS011;5248;47.374;8.486;2022-09-03T12:55:37;1.55;;;1.27;;
10403;SDS011;5248;47.374;8.486;2022-09-03T12:58:07;1.35;;;1.25;;
10403;SDS011;5248;47.374;8.486;2022-09-03T13:00:37;1.83;;;1.42;;
10403;SDS011;5248;47.374;8.486;2022-09-03T13:03:07;1.10;;;1.10;;
10403;SDS011;5248;47.374;8.486;2022-09-03T13:05:39;1.20;;;1.20;;
10403;SDS011;5248;47.374;8.486;2022-09-03T13:08:09;1.75;;;1.65;;
10403;SDS011;5248;47.374;8.486;2022-09-03T13:10:41;1.70;;;1.20;;
10403;SDS011;5248;47.374;8.486;2022-09-03T13:13:16;1.20;;;1.20;;
10403;SDS011;5248;47.374;8.486;2022-09-03T13:15:59;1.40;;;1.30;;
10403;SDS011;5248;47.374;8.486;2022-09-03T13:18:36;1.15;;;1.15;;
10403;SDS011;5248;47.374;8.486;2022-09-03T13:21:13;1.35;;;1.30;;
10403;SDS011;5248;47.374;8.486;2022-09-03T13:23:48;1.23;;;1.13;;
10403;SDS011;5248;47.374;8.486;2022-09-03T13:26:23;1.50;;;1.40;;
10403;SDS011;5248;47.374;8.486;2022-09-03T13:28:57;1.17;;;1.10;;
10403;SDS011;5248;47.374;8.486;2022-09-03T13:31:37;1.70;;;1.60;;
10403;SDS011;5248;47.374;8.486;2022-09-03T13:34:10;1.80;;;1.70;;
10403;SDS011;5248;47.374;8.486;2022-09-03T13:36:43;1.13;;;1.13;;
10403;SDS011;5248;47.374;8.486;2022-09-03T13:39:17;1.75;;;1.50;;
10403;SDS011;5248;47.374;8.486;2022-09-03T13:41:47;1.90;;;1.80;;
10403;SDS011;5248;47.374;8.486;2022-09-03T13:44:19;1.58;;;1.27;;
10403;SDS011;5248;47.374;8.486;2022-09-03T13:47:04;1.83;;;1.40;;
10403;SDS011;5248;47.374;8.486;2022-09-03T13:49:36;1.58;;;1.52;;
10403;SDS011;5248;47.374;8.486;2022-09-03T13:52:23;3.45;;;3.15;;
10403;SDS011;5248;47.374;8.486;2022-09-03T13:54:55;1.75;;;1.65;;
10403;SDS011;5248;47.374;8.486;2022-09-03T13:57:29;1.50;;;1.40;;
10403;SDS011;5248;47.374;8.486;2022-09-03T14:00:00;1.88;;;1.50;;
10403;SDS011;5248;47.374;8.486;2022-09-03T14:02:36;1.15;;;1.15;;
10403;SDS011;5248;47.374;8.486;2022-09-03T14:05:14;1.65;;;1.55;;
10403;SDS011;5248;47.374;8.486;2022-09-03T14:07:55;1.60;;;1.50;;
10403;SDS011;5248;47.374;8.486;2022-09-03T14:10:30;1.50;;;1.40;;
10403;SDS011;5248;47.374;8.486;2022-09-03T14:13:09;1.73;;;1.63;;
10403;SDS011;5248;47.374;8.486;2022-09-03T14:15:41;1.70;;;1.60;;
10403;SDS011;5248;47.374;8.486;2022-09-03T14:18:12;1.83;;;1.73;;
10403;SDS011;5248;47.374;8.486;2022-09-03T14:20:43;1.50;;;1.50;;
10403;SDS011;5248;47.374;8.486;2022-09-03T14:23:21;1.90;;;1.80;;
10403;SDS011;5248;47.374;8.486;2022-09-03T14:25:54;1.63;;;1.52;;
10403;SDS011;5248;47.374;8.486;2022-09-03T14:28:28;1.98;;;1.88;;
10403;SDS011;5248;47.374;8.486;2022-09-03T14:31:00;2.42;;;2.00;;
10403;SDS011;5248;47.374;8.486;2022-09-03T14:33:36;2.10;;;2.00;;
10403;SDS011;5248;47.374;8.486;2022-09-03T14:36:08;3.75;;;3.45;;
10403;SDS011;5248;47.374;8.486;2022-09-03T14:38:51;1.95;;;1.85;;
10403;SDS011;5248;47.374;8.486;2022-09-03T14:41:37;2.65;;;2.17;;
10403;SDS011;5248;47.374;8.486;2022-09-03T14:44:25;2.13;;;2.03;;
10403;SDS011;5248;47.374;8.486;2022-09-03T14:47:05;1.77;;;1.70;;
10403;SDS011;5248;47.374;8.486;2022-09-03T14:49:45;2.22;;;2.03;;
10403;SDS011;5248;47.374;8.486;2022-09-03T14:52:37;1.92;;;1.83;;
10403;SDS011;5248;47.374;8.486;2022-09-03T14:55:21;1.95;;;1.85;;
10403;SDS011;5248;47.374;8.486;2022-09-03T14:58:10;2.00;;;1.90;;
10403;SDS011;5248;47.374;8.486;2022-09-03T15:00:46;5.32;;;4.82;;
10403;SDS011;5248;47.374;8.486;2022-09-03T15:03:21;2.80;;;2.10;;
10403;SDS011;5248;47.374;8.486;2022-09-03T15:08:58;1.60;;;1.50;;
10403;SDS011;5248;47.374;8.486;2022-09-03T15:11:42;1.77;;;1.67;;
10403;SDS011;5248;47.374;8.486;2022-09-03T15:14:13;2.25;;;2.05;;
10403;SDS011;5248;47.374;8.486;2022-09-03T15:16:46;1.98;;;1.88;;
10403;SDS011;5248;47.374;8.486;2022-09-03T15:19:27;2.08;;;1.45;;
10403;SDS011;5248;47.374;8.486;2022-09-03T15:22:12;1.60;;;1.50;;
10403;SDS011;5248;47.374;8.486;2022-09-03T15:24:46;2.25;;;1.60;;
10403;SDS011;5248;47.374;8.486;2022-09-03T15:27:27;1.90;;;1.80;;
10403;SDS011;5248;47.374;8.486;2022-09-03T15:30:05;1.90;;;1.80;;
10403;SDS011;5248;47.374;8.486;2022-09-03T15:35:33;2.33;;;1.60;;
10403;SDS011;5248;47.374;8.486;2022-09-03T15:38:08;2.25;;;2.10;;